Time;durP1;ratioP1;P1;durP2;ratioP2;P2;SDS_P1;SDS_P2;PMS_P1;PMS_P2;Temp;Humidity;BMP_temperature;BMP_pressure;BME280_temperature;BME280_humidity;BME280_pressure;Samples;Min_cycle;Max_cycle;Signal;HPM_P1;HPM_P2
2023/04/27 00:00:20;;;;;;;;;5.80;3.60;;;;;5.69;62.24;100239.97;5079453;28;8836;-87
2023/04/27 00:02:48;;;;;;;;;5.00;4.80;;;;;5.61;62.36;100228.97;5078664;28;8848;-87
2023/04/27 00:05:16;;;;;;;;;5.20;4.80;;;;;5.53;62.31;100236.47;5079840;28;8816;-86
2023/04/27 00:07:45;;;;;;;;;5.60;3.00;;;;;5.46;63.09;100243.00;5079651;28;8836;-87
2023/04/27 00:10:12;;;;;;;;;6.20;3.80;;;;;5.40;62.88;100232.75;5080721;28;8844;-87
2023/04/27 00:12:41;;;;;;;;;2.60;1.40;;;;;5.34;62.89;100238.38;5080904;28;8848;-87
2023/04/27 00:15:09;;;;;;;;;4.00;4.00;;;;;5.29;62.99;100232.47;5081525;28;8863;-87
2023/04/27 00:17:37;;;;;;;;;8.60;7.00;;;;;5.22;63.24;100237.25;5081931;28;8956;-87
2023/04/27 00:20:07;;;;;;;;;6.20;6.00;;;;;5.16;63.58;100234.09;5082538;28;8945;-87
2023/04/27 00:22:35;;;;;;;;;6.60;5.60;;;;;5.10;63.78;100245.78;5079871;28;8874;-87
2023/04/27 00:25:03;;;;;;;;;5.20;4.20;;;;;5.05;63.83;100239.06;5079413;28;8851;-87
2023/04/27 00:27:30;;;;;;;;;4.80;4.80;;;;;4.96;63.44;100237.78;5077652;28;8832;-87
2023/04/27 00:29:59;;;;;;;;;6.40;6.20;;;;;4.87;64.05;100240.03;5077826;28;8844;-87
2023/04/27 00:32:27;;;;;;;;;6.80;6.80;;;;;4.78;63.83;100251.06;5077636;28;8840;-87
2023/04/27 00:34:55;;;;;;;;;6.20;4.40;;;;;4.69;64.45;100255.00;5077322;28;8933;-87
2023/04/27 00:37:22;;;;;;;;;5.20;4.80;;;;;4.59;64.57;100247.63;5077260;28;8836;-87
2023/04/27 00:39:50;;;;;;;;;3.00;3.00;;;;;4.49;64.45;100247.25;5076061;28;8825;-87
2023/04/27 00:42:18;;;;;;;;;3.20;3.00;;;;;4.43;64.90;100257.25;5077176;28;8851;-87
2023/04/27 00:44:46;;;;;;;;;3.80;3.80;;;;;4.37;64.38;100258.41;5079321;28;8855;-87
2023/04/27 00:47:13;;;;;;;;;3.80;3.80;;;;;4.31;65.03;100258.72;5080617;28;8848;-87
2023/04/27 00:49:41;;;;;;;;;4.40;4.00;;;;;4.27;65.13;100254.50;5079832;28;9474;-86
2023/04/27 00:52:09;;;;;;;;;5.20;5.20;;;;;4.24;64.63;100261.69;5082503;28;8866;-87
2023/04/27 00:54:37;;;;;;;;;4.00;4.00;;;;;4.18;64.76;100254.13;5081739;28;8872;-87
2023/04/27 00:57:05;;;;;;;;;4.40;4.40;;;;;4.17;64.77;100262.94;5081398;28;8852;-87
2023/04/27 00:59:33;;;;;;;;;4.00;3.20;;;;;4.11;64.72;100266.72;5081252;28;8925;-86
2023/04/27 01:02:00;;;;;;;;;5.20;4.20;;;;;4.13;65.34;100271.94;5081314;28;8890;-87
2023/04/27 01:04:28;;;;;;;;;3.20;3.00;;;;;4.10;64.46;100270.28;5078632;28;8824;-87
2023/04/27 01:06:56;;;;;;;;;3.40;2.60;;;;;4.08;64.75;100266.88;5077455;28;8995;-87
2023/04/27 01:09:24;;;;;;;;;3.60;3.20;;;;;4.06;65.33;100271.38;5077979;28;8848;-87
2023/04/27 01:11:52;;;;;;;;;6.40;5.60;;;;;4.05;65.12;100268.81;5078065;28;8936;-87
2023/04/27 01:14:20;;;;;;;;;1.40;1.40;;;;;4.02;65.23;100264.53;5077385;28;8898;-87
2023/04/27 01:16:49;;;;;;;;;6.00;5.20;;;;;4.00;64.84;100269.03;5077599;28;8844;-87
2023/04/27 01:19:17;;;;;;;;;3.00;3.00;;;;;3.98;64.88;100264.75;5077004;28;8957;-87
2023/04/27 01:21:45;;;;;;;;;6.80;3.60;;;;;3.95;65.04;100272.81;5077200;28;8832;-87
2023/04/27 01:24:12;;;;;;;;;6.80;6.40;;;;;3.92;65.53;100270.31;5077736;28;8836;-87
2023/04/27 01:26:40;;;;;;;;;5.60;4.00;;;;;3.86;65.22;100281.13;5076773;28;8840;-87
2023/04/27 01:29:08;;;;;;;;;5.60;4.80;;;;;3.79;65.74;100279.72;5077833;28;8840;-87
2023/04/27 01:31:36;;;;;;;;;3.40;2.80;;;;;3.72;65.04;100289.69;5077165;28;8844;-87
2023/04/27 01:34:03;;;;;;;;;3.60;2.20;;;;;3.67;65.81;100292.59;5077235;28;8832;-87
2023/04/27 01:36:31;;;;;;;;;6.20;6.00;;;;;3.62;65.51;100295.44;5077488;28;8836;-87
2023/04/27 01:38:59;;;;;;;;;2.40;2.40;;;;;3.55;66.09;100294.00;5077183;28;8855;-87
2023/04/27 01:41:27;;;;;;;;;3.00;3.00;;;;;3.50;66.03;100290.75;5077089;28;8859;-87
2023/04/27 01:43:55;;;;;;;;;4.00;4.00;;;;;3.49;65.61;100298.72;5077083;28;8840;-87
2023/04/27 01:46:22;;;;;;;;;8.20;3.60;;;;;3.47;65.57;100290.03;5077100;28;8832;-87
2023/04/27 01:48:50;;;;;;;;;4.00;4.00;;;;;3.45;65.63;100295.38;5076611;28;8832;-87
2023/04/27 01:51:17;;;;;;;;;3.60;3.40;;;;;3.41;66.33;100295.56;5076718;28;8840;-87
2023/04/27 01:53:45;;;;;;;;;4.00;3.60;;;;;3.38;65.76;100307.09;5076764;28;8828;-87
2023/04/27 01:56:13;;;;;;;;;1.00;1.00;;;;;3.32;66.28;100304.72;5076817;28;8828;-87
2023/04/27 01:58:41;;;;;;;;;6.00;4.40;;;;;3.24;66.34;100300.75;5076220;28;8833;-87
2023/04/27 02:01:09;;;;;;;;;3.00;3.00;;;;;3.18;65.92;100311.53;5076564;28;8843;-87
2023/04/27 02:03:36;;;;;;;;;4.00;4.00;;;;;3.09;66.83;100306.69;5076612;28;8882;-86
2023/04/27 02:06:04;;;;;;;;;4.00;3.00;;;;;3.03;66.33;100305.16;5076478;28;8835;-87
2023/04/27 02:08:32;;;;;;;;;3.40;2.20;;;;;2.97;66.59;100313.31;5076128;28;8851;-87
2023/04/27 02:11:00;;;;;;;;;3.00;3.00;;;;;2.92;66.64;100311.78;5075893;28;8824;-87
2023/04/27 02:13:27;;;;;;;;;6.00;3.20;;;;;2.89;66.56;100320.66;5076281;28;8913;-86
2023/04/27 02:15:55;;;;;;;;;1.00;1.00;;;;;2.88;66.80;100312.84;5076335;28;8840;-86
2023/04/27 02:18:24;;;;;;;;;6.00;6.00;;;;;2.87;67.19;100317.25;5076043;28;8914;-86
2023/04/27 02:20:51;;;;;;;;;1.00;1.00;;;;;2.86;66.84;100318.16;5075684;28;8929;-87
2023/04/27 02:23:19;;;;;;;;;3.20;2.60;;;;;2.87;67.32;100317.25;5076211;28;8840;-86
2023/04/27 02:25:46;;;;;;;;;3.40;3.40;;;;;2.87;66.40;100327.75;5076271;28;8879;-87
2023/04/27 02:28:14;;;;;;;;;1.80;1.80;;;;;2.86;66.52;100326.06;5076295;28;8871;-86
2023/04/27 02:30:43;;;;;;;;;4.00;4.00;;;;;2.81;66.58;100320.13;5075668;28;8812;-87
2023/04/27 02:33:11;;;;;;;;;3.00;3.00;;;;;2.74;67.33;100320.47;5075560;28;8840;-87
2023/04/27 02:35:38;;;;;;;;;6.00;5.60;;;;;2.63;67.24;100320.91;5076342;28;8844;-86
2023/04/27 02:38:06;;;;;;;;;4.00;3.80;;;;;2.56;66.90;100322.09;5076300;28;9617;-86
2023/04/27 02:40:34;;;;;;;;;3.60;3.60;;;;;2.53;66.96;100308.22;5075976;28;8873;-86
2023/04/27 02:43:02;;;;;;;;;3.20;3.20;;;;;2.47;67.28;100309.31;5076261;28;9495;-86
2023/04/27 02:45:30;;;;;;;;;3.40;3.40;;;;;2.47;67.35;100313.72;5075873;28;8843;-86
2023/04/27 02:47:58;;;;;;;;;2.60;2.60;;;;;2.44;67.59;100312.06;5075270;28;8852;-86
2023/04/27 02:50:25;;;;;;;;;3.00;3.00;;;;;2.43;67.83;100320.03;5075911;28;8872;-86
2023/04/27 02:52:54;;;;;;;;;3.00;1.40;;;;;2.42;67.04;100313.91;5076205;28;8894;-87
2023/04/27 02:55:22;;;;;;;;;1.00;1.00;;;;;2.41;67.75;100311.38;5075900;28;8836;-86
2023/04/27 02:57:50;;;;;;;;;3.00;1.40;;;;;2.38;67.03;100311.47;5076386;28;8828;-86
2023/04/27 03:00:18;;;;;;;;;3.40;3.40;;;;;2.33;67.75;100311.66;5076079;28;8871;-86
2023/04/27 03:02:46;;;;;;;;;3.80;3.00;;;;;2.28;67.45;100313.59;5078254;28;8824;-86
2023/04/27 03:05:14;;;;;;;;;4.40;4.40;;;;;2.23;67.55;100315.59;5062379;28;8824;-86
2023/04/27 03:07:42;;;;;;;;;2.20;2.20;;;;;2.18;67.83;100307.03;5079759;28;8836;-86
2023/04/27 03:10:10;;;;;;;;;4.80;4.80;;;;;2.14;68.13;100302.78;5079700;28;8848;-86
2023/04/27 03:12:37;;;;;;;;;4.00;4.00;;;;;2.12;67.67;100301.16;5079157;28;8856;-87
2023/04/27 03:15:05;;;;;;;;;2.20;2.20;;;;;2.11;67.49;100304.72;5079200;28;8925;-86
2023/04/27 03:17:33;;;;;;;;;4.20;3.20;;;;;2.11;67.20;100299.47;5079572;28;8820;-86
2023/04/27 03:20:01;;;;;;;;;3.00;3.00;;;;;2.10;67.91;100298.59;5079037;28;8835;-86
2023/04/27 03:22:29;;;;;;;;;3.60;3.60;;;;;2.10;67.21;100301.22;5079279;28;8925;-86
2023/04/27 03:24:58;;;;;;;;;3.20;3.20;;;;;2.10;67.79;100290.72;5078983;28;8828;-86
2023/04/27 03:27:25;;;;;;;;;3.80;3.80;;;;;2.12;67.50;100291.50;5079233;28;8824;-87
2023/04/27 03:29:53;;;;;;;;;4.00;3.40;;;;;2.12;67.31;100288.03;5079135;28;8836;-86
2023/04/27 03:32:21;;;;;;;;;3.00;3.00;;;;;2.10;67.83;100290.72;5079090;28;8848;-86
2023/04/27 03:34:49;;;;;;;;;4.20;4.20;;;;;2.06;67.28;100289.13;5078652;28;8840;-86
2023/04/27 03:37:16;;;;;;;;;2.60;2.60;;;;;2.02;67.56;100292.78;5078841;28;8832;-86
2023/04/27 03:39:44;;;;;;;;;4.80;4.00;;;;;1.99;67.67;100292.91;5078941;28;8820;-86
2023/04/27 03:42:12;;;;;;;;;1.80;1.00;;;;;1.97;67.87;100289.47;5078771;28;8836;-86
2023/04/27 03:44:40;;;;;;;;;4.00;3.60;;;;;1.95;68.12;100296.56;5078897;28;8966;-86
2023/04/27 03:47:09;;;;;;;;;2.20;1.40;;;;;1.95;68.26;100304.44;5078231;28;8897;-87
2023/04/27 03:49:36;;;;;;;;;3.80;3.40;;;;;1.95;67.92;100300.94;5078111;28;8828;-87
2023/04/27 03:52:04;;;;;;;;;4.00;3.80;;;;;1.94;67.92;100297.50;5078877;28;8898;-86
2023/04/27 03:54:32;;;;;;;;;3.40;3.40;;;;;1.96;67.62;100308.78;5078511;28;8917;-86
2023/04/27 03:57:01;;;;;;;;;5.20;5.20;;;;;1.97;67.80;100313.13;5078383;28;8949;-86
2023/04/27 03:59:29;;;;;;;;;3.00;3.00;;;;;1.98;67.99;100312.19;5078992;28;8860;-85
2023/04/27 04:01:57;;;;;;;;;3.00;3.00;;;;;1.97;68.00;100321.00;5079967;28;9509;-85
2023/04/27 04:04:27;;;;;;;;;3.00;3.00;;;;;1.97;68.02;100321.00;5079555;28;8840;-85
2023/04/27 04:06:55;;;;;;;;;1.00;1.00;;;;;1.97;67.47;100313.13;5079609;28;8852;-85
2023/04/27 04:09:23;;;;;;;;;4.00;3.40;;;;;1.94;67.92;100310.63;5079602;28;8827;-86
2023/04/27 04:11:51;;;;;;;;;1.00;1.00;;;;;1.91;68.21;100315.97;5079172;28;8844;-86
2023/04/27 04:14:19;;;;;;;;;1.80;1.40;;;;;1.86;67.74;100314.44;5077677;28;8883;-86
2023/04/27 04:16:46;;;;;;;;;3.00;3.00;;;;;1.80;68.22;100320.78;5079126;28;8883;-86
2023/04/27 04:19:14;;;;;;;;;1.80;1.00;;;;;1.77;67.97;100327.94;5079908;28;8898;-86
2023/04/27 04:21:42;;;;;;;;;3.00;2.20;;;;;1.75;68.35;100325.34;5079400;28;8828;-86
2023/04/27 04:24:10;;;;;;;;;5.20;5.20;;;;;1.74;68.11;100326.28;5080249;28;8840;-86
2023/04/27 04:26:38;;;;;;;;;4.00;4.00;;;;;1.75;68.26;100327.97;5080487;28;8816;-86
2023/04/27 04:29:06;;;;;;;;;1.00;1.00;;;;;1.77;68.28;100330.56;5085448;28;8844;-86
2023/04/27 04:31:37;;;;;;;;;1.00;1.00;;;;;1.76;67.41;100334.94;5084981;28;8837;-86
2023/04/27 04:34:05;;;;;;;;;3.00;3.00;;;;;1.78;68.20;100340.13;5085775;28;8867;-86
2023/04/27 04:36:35;;;;;;;;;5.20;4.40;;;;;1.81;68.04;100342.66;5084915;28;8919;-87
2023/04/27 04:39:04;;;;;;;;;3.00;2.20;;;;;1.87;67.45;100335.41;5085006;28;8855;-86
2023/04/27 04:41:32;;;;;;;;;4.40;4.40;;;;;1.92;67.89;100343.97;5085275;28;8851;-86
2023/04/27 04:43:59;;;;;;;;;3.60;3.20;;;;;1.96;67.79;100352.56;5084213;28;8844;-86
2023/04/27 04:46:27;;;;;;;;;1.00;1.00;;;;;1.97;67.47;100349.88;5079764;28;8840;-87
2023/04/27 04:48:55;;;;;;;;;3.00;2.20;;;;;2.02;67.73;100350.56;5080609;28;8962;-86
2023/04/27 04:51:23;;;;;;;;;3.40;3.00;;;;;2.06;67.92;100341.63;5080982;28;8848;-86
2023/04/27 04:53:51;;;;;;;;;2.20;2.20;;;;;2.11;67.57;100347.56;5082361;28;8860;-86
2023/04/27 04:56:18;;;;;;;;;5.20;5.20;;;;;2.19;66.94;100339.41;5084307;28;8844;-86
2023/04/27 04:58:46;;;;;;;;;3.20;3.00;;;;;2.25;67.40;100332.13;5080262;28;8840;-86
2023/04/27 05:01:14;;;;;;;;;3.40;3.40;;;;;2.33;67.47;100339.69;5077104;28;8824;-87
2023/04/27 05:03:42;;;;;;;;;4.40;3.80;;;;;2.38;67.18;100324.59;5076594;28;8901;-86
2023/04/27 05:06:10;;;;;;;;;6.00;5.00;;;;;2.45;67.56;100333.94;5076897;28;9514;-86
2023/04/27 05:08:37;;;;;;;;;4.80;4.40;;;;;2.52;66.93;100338.91;5076745;28;8866;-87
2023/04/27 05:11:05;;;;;;;;;1.80;1.80;;;;;2.61;66.91;100337.66;5076925;28;8879;-86
2023/04/27 05:13:34;;;;;;;;;5.60;5.20;;;;;2.69;66.72;100332.94;5076060;28;8838;-86
2023/04/27 05:16:02;;;;;;;;;3.00;3.00;;;;;2.77;66.15;100336.97;5077311;28;9696;-86
2023/04/27 05:18:30;;;;;;;;;4.00;3.80;;;;;2.86;66.06;100333.94;5075757;28;8844;-86
2023/04/27 05:20:57;;;;;;;;;5.60;4.80;;;;;2.98;66.17;100338.69;5075534;28;8836;-86
2023/04/27 05:23:25;;;;;;;;;7.40;6.80;;;;;3.12;66.22;100332.84;5075860;28;8820;-86
2023/04/27 05:25:53;;;;;;;;;6.80;6.40;;;;;3.26;65.64;100346.25;5074564;28;8866;-86
2023/04/27 05:28:20;;;;;;;;;4.80;4.00;;;;;3.36;65.12;100353.69;5074726;28;8843;-86
2023/04/27 05:30:48;;;;;;;;;4.00;3.60;;;;;3.47;65.52;100348.78;5074997;28;8843;-86
2023/04/27 05:33:16;;;;;;;;;3.00;3.00;;;;;3.58;65.01;100345.69;5074821;28;8836;-86
2023/04/27 05:35:44;;;;;;;;;4.80;4.80;;;;;3.70;65.06;100343.34;5075327;28;8844;-86
2023/04/27 05:38:16;;;;;;;;;7.00;6.80;;;;;3.85;65.20;100346.13;5074836;28;8982;-86
2023/04/27 05:40:43;;;;;;;;;3.00;3.00;;;;;4.04;64.24;100348.78;5075706;28;9517;-86
2023/04/27 05:43:11;;;;;;;;;9.80;9.40;;;;;4.22;64.63;100353.16;5076258;28;8875;-86
2023/04/27 05:45:39;;;;;;;;;9.60;9.40;;;;;4.38;64.38;100348.88;5075650;28;8880;-87
2023/04/27 05:48:07;;;;;;;;;6.00;6.00;;;;;4.51;63.92;100358.78;5074632;28;8828;-87
2023/04/27 05:50:35;;;;;;;;;6.00;6.00;;;;;4.65;63.69;100358.94;5073459;28;8852;-87
2023/04/27 05:53:04;;;;;;;;;12.00;12.00;;;;;4.81;63.83;100364.31;5073375;28;8882;-87
2023/04/27 05:55:32;;;;;;;;;10.00;10.00;;;;;4.96;63.33;100364.41;5073060;28;8860;-87
2023/04/27 05:58:00;;;;;;;;;6.00;4.00;;;;;5.09;63.50;100365.50;5073407;28;8932;-87
2023/04/27 06:00:36;;;;;;;;;5.80;5.60;;;;;5.26;63.42;100369.91;5073198;28;8971;-87
2023/04/27 06:03:03;;;;;;;;;7.80;7.40;;;;;5.43;63.38;100369.91;5073265;28;8848;-87
2023/04/27 06:05:33;;;;;;;;;5.60;4.40;;;;;5.61;62.63;100374.22;5073330;28;8840;-87
2023/04/27 06:08:00;;;;;;;;;7.00;6.00;;;;;5.80;62.66;100367.06;5071448;28;8851;-87
2023/04/27 06:10:28;;;;;;;;;8.00;6.60;;;;;5.99;62.23;100365.16;5070915;28;8866;-87
2023/04/27 06:12:56;;;;;;;;;7.80;7.80;;;;;6.16;62.32;100368.56;5071608;28;8962;-86
2023/04/27 06:15:24;;;;;;;;;6.60;6.40;;;;;6.35;61.56;100373.69;5072723;28;9221;-87
2023/04/27 06:17:52;;;;;;;;;9.20;8.60;;;;;6.51;61.50;100369.25;5073414;28;8856;-87
2023/04/27 06:20:19;;;;;;;;;7.40;7.40;;;;;6.69;61.52;100373.50;5072115;28;8999;-87
2023/04/27 06:22:47;;;;;;;;;9.40;7.80;;;;;6.85;60.79;100372.56;5073138;28;8862;-87
2023/04/27 06:25:16;;;;;;;;;7.40;7.00;;;;;6.99;60.53;100369.09;5074493;28;8848;-87
2023/04/27 06:27:43;;;;;;;;;6.20;5.20;;;;;7.09;60.98;100370.25;5073251;28;8953;-87
2023/04/27 06:30:11;;;;;;;;;8.20;8.20;;;;;7.21;61.00;100366.91;5072884;28;8863;-87
2023/04/27 06:32:38;;;;;;;;;7.00;6.40;;;;;7.33;61.14;100371.44;5073107;28;8852;-87
2023/04/27 06:35:07;;;;;;;;;6.40;6.40;;;;;7.46;60.60;100367.13;5073432;28;8832;-87
2023/04/27 06:37:35;;;;;;;;;6.40;6.20;;;;;7.56;60.38;100363.84;5072948;28;8848;-87
2023/04/27 06:40:03;;;;;;;;;9.00;7.00;;;;;7.69;60.48;100370.09;5073574;28;8844;-87
2023/04/27 06:42:31;;;;;;;;;14.60;12.20;;;;;7.79;60.16;100368.56;5073744;28;8860;-87
2023/04/27 06:44:59;;;;;;;;;4.20;4.00;;;;;7.92;59.84;100374.84;5076316;28;8860;-87
2023/04/27 06:47:26;;;;;;;;;6.00;6.00;;;;;8.05;60.00;100362.53;5076102;28;9241;-86
2023/04/27 06:49:54;;;;;;;;;6.60;6.60;;;;;8.15;59.86;100361.81;5075806;28;8844;-86
2023/04/27 06:52:22;;;;;;;;;6.60;6.00;;;;;8.25;59.84;100354.19;5076112;28;8840;-86
2023/04/27 06:54:49;;;;;;;;;3.80;3.80;;;;;8.35;59.41;100361.47;5076790;28;8859;-86
2023/04/27 06:57:17;;;;;;;;;8.20;7.40;;;;;8.41;59.47;100355.75;5076601;28;8977;-86
2023/04/27 06:59:45;;;;;;;;;5.60;4.00;;;;;8.48;59.54;100357.06;5076271;28;8854;-85
2023/04/27 07:02:14;;;;;;;;;3.40;2.20;;;;;8.54;59.47;100359.34;5075927;28;8844;-86
2023/04/27 07:04:42;;;;;;;;;3.50;3.25;;;;;8.65;59.28;100354.19;5075008;28;8836;-86
2023/04/27 07:07:10;;;;;;;;;4.80;4.80;;;;;8.77;58.78;100344.56;5075486;28;8859;-86
2023/04/27 07:09:37;;;;;;;;;6.00;6.00;;;;;8.84;59.23;100337.88;5076496;28;9583;-86
2023/04/27 07:12:06;;;;;;;;;4.00;4.00;;;;;8.90;58.81;100334.84;5075201;28;8882;-86
2023/04/27 07:14:33;;;;;;;;;3.00;3.00;;;;;8.97;58.54;100336.97;5074216;28;8852;-87
2023/04/27 07:17:01;;;;;;;;;2.00;2.00;;;;;9.04;58.74;100343.56;5072844;28;8860;-87
2023/04/27 07:19:29;;;;;;;;;3.00;3.00;;;;;9.11;58.14;100339.56;5073708;28;8856;-86
2023/04/27 07:21:57;;;;;;;;;2.50;2.50;;;;;9.15;58.18;100340.19;5072889;28;8836;-86
2023/04/27 07:24:24;;;;;;;;;4.00;3.75;;;;;9.23;58.17;100340.53;5072933;28;8855;-86
2023/04/27 07:26:53;;;;;;;;;3.00;3.00;;;;;9.31;57.89;100341.72;5072804;28;8901;-86
2023/04/27 07:29:21;;;;;;;;;6.25;6.00;;;;;9.39;57.47;100344.69;5071592;28;8863;-86
2023/04/27 07:31:54;;;;;;;;;3.75;3.75;;;;;9.48;57.36;100335.25;5072801;28;9517;-86
2023/04/27 07:34:22;;;;;;;;;5.50;3.25;;;;;9.60;56.72;100334.41;5072833;28;8845;-86
2023/04/27 07:36:51;;;;;;;;;3.50;3.50;;;;;9.74;56.89;100327.19;5073640;28;8867;-86
2023/04/27 07:39:19;;;;;;;;;4.00;4.00;;;;;9.86;56.38;100323.63;5073732;28;8856;-86
2023/04/27 07:41:48;;;;;;;;;3.25;3.00;;;;;9.99;56.39;100327.13;5073904;28;8855;-86
2023/04/27 07:44:17;;;;;;;;;3.00;3.00;;;;;10.08;56.19;100331.00;5074671;28;8852;-86
2023/04/27 07:46:46;;;;;;;;;4.00;4.00;;;;;10.18;55.99;100327.53;5073998;28;8858;-86
2023/04/27 07:49:14;;;;;;;;;3.75;3.00;;;;;10.25;55.71;100328.81;5076893;28;9628;-86
2023/04/27 07:51:43;;;;;;;;;3.50;3.25;;;;;10.31;55.26;100333.69;5077057;28;8933;-86
2023/04/27 07:54:11;;;;;;;;;3.25;3.25;;;;;10.36;55.43;100326.22;5077016;28;8893;-86
2023/04/27 07:56:39;;;;;;;;;5.00;5.00;;;;;10.42;55.73;100330.25;5077597;28;8937;-87
2023/04/27 07:59:07;;;;;;;;;4.50;4.50;;;;;10.49;55.63;100321.72;5077003;28;8972;-86
2023/04/27 08:01:35;;;;;;;;;6.25;6.25;;;;;10.62;55.29;100329.66;5077392;28;8913;-87
2023/04/27 08:04:03;;;;;;;;;7.00;6.00;;;;;10.73;54.74;100324.38;5076889;28;8858;-87
2023/04/27 08:06:32;;;;;;;;;6.50;6.00;;;;;10.84;55.11;100335.94;5076621;28;8868;-86
2023/04/27 08:09:02;;;;;;;;;4.00;4.00;;;;;10.91;54.53;100334.50;5079572;28;8928;-86
2023/04/27 08:11:30;;;;;;;;;3.00;3.00;;;;;10.94;54.44;100326.28;5078254;28;8856;-87
2023/04/27 08:13:59;;;;;;;;;2.00;1.00;;;;;10.97;54.51;100327.88;5078021;28;8841;-87
2023/04/27 08:16:26;;;;;;;;;6.00;4.00;;;;;11.04;54.69;100342.44;5079014;28;8980;-86
2023/04/27 08:18:54;;;;;;;;;4.00;4.00;;;;;11.11;54.68;100343.66;5078845;28;8867;-86
2023/04/27 08:21:24;;;;;;;;;3.25;3.00;;;;;11.15;54.22;100335.31;5079678;28;8832;-86
2023/04/27 08:23:52;;;;;;;;;3.25;3.00;;;;;11.20;54.13;100341.16;5079850;28;8968;-87
2023/04/27 08:26:20;;;;;;;;;4.00;3.75;;;;;11.27;54.07;100330.88;5078584;28;9545;-87
2023/04/27 08:28:53;;;;;;;;;6.50;6.50;;;;;11.41;53.41;100328.00;5080099;28;8832;-86
2023/04/27 08:31:21;;;;;;;;;4.50;4.00;;;;;11.52;54.13;100330.72;5079565;28;8905;-87
2023/04/27 08:33:48;;;;;;;;;7.00;6.75;;;;;11.60;53.85;100326.50;5078372;28;8856;-87
2023/04/27 08:36:17;;;;;;;;;3.75;3.00;;;;;11.68;53.67;100324.09;5080176;28;8848;-86
2023/04/27 08:38:45;;;;;;;;;6.00;4.00;;;;;11.76;53.08;100326.16;5080577;28;9003;-87
2023/04/27 08:41:13;;;;;;;;;3.50;2.00;;;;;11.86;53.03;100325.34;5079104;28;8857;-87
2023/04/27 08:43:49;;;;;;;;;4.00;3.00;;;;;12.01;53.07;100314.28;5081091;28;8933;-86
2023/04/27 08:46:17;;;;;;;;;4.00;4.00;;;;;12.15;52.57;100318.53;5084869;28;8864;-85
2023/04/27 08:48:45;;;;;;;;;3.75;3.25;;;;;12.26;52.27;100313.16;5081915;28;9627;-86
2023/04/27 08:51:14;;;;;;;;;3.25;2.00;;;;;12.35;52.12;100310.59;5080551;28;9529;-87
2023/04/27 08:53:42;;;;;;;;;3.25;3.00;;;;;12.46;51.83;100309.75;5079924;28;8832;-86
2023/04/27 08:56:09;;;;;;;;;7.00;5.00;;;;;12.52;52.07;100309.22;5080658;28;8852;-86
2023/04/27 08:58:38;;;;;;;;;3.00;3.00;;;;;12.58;52.00;100306.91;5080983;28;8844;-86
2023/04/27 09:01:06;;;;;;;;;4.00;4.00;;;;;12.65;51.80;100310.78;5079992;28;9618;-86
2023/04/27 09:03:35;;;;;;;;;3.25;3.25;;;;;12.76;51.63;100313.41;5080640;28;8828;-86
2023/04/27 09:06:03;;;;;;;;;4.00;4.00;;;;;12.91;51.11;100311.31;5080600;28;8863;-87
2023/04/27 09:08:32;;;;;;;;;1.00;1.00;;;;;13.03;50.56;100305.81;5080135;28;8965;-86
2023/04/27 09:11:00;;;;;;;;;3.00;3.00;;;;;13.15;50.71;100310.09;5080146;28;8864;-87
2023/04/27 09:13:29;;;;;;;;;1.50;1.00;;;;;13.29;50.57;100311.63;5082715;28;8832;-86
2023/04/27 09:15:57;;;;;;;;;4.50;3.25;;;;;13.42;50.74;100306.91;5082522;28;8848;-87
2023/04/27 09:18:25;;;;;;;;;6.00;5.50;;;;;13.55;49.82;100307.56;5080911;28;8856;-87
2023/04/27 09:20:53;;;;;;;;;4.00;3.75;;;;;13.69;49.74;100307.22;5080252;28;8897;-87
2023/04/27 09:23:21;;;;;;;;;0.00;0.00;;;;;13.90;49.38;100291.97;5082346;28;8820;-86
2023/04/27 09:25:49;;;;;;;;;5.25;5.00;;;;;14.08;49.46;100301.06;5081740;28;8860;-86
2023/04/27 09:28:17;;;;;;;;;3.00;3.00;;;;;14.28;49.12;100297.50;5081711;28;8978;-86
2023/04/27 09:30:45;;;;;;;;;3.75;3.50;;;;;14.49;48.63;100298.28;5078917;28;9304;-86
2023/04/27 09:33:14;;;;;;;;;3.75;3.00;;;;;14.71;47.34;100290.00;5079024;28;8945;-86
2023/04/27 09:35:42;;;;;;;;;3.25;3.25;;;;;14.98;47.36;100287.44;5080990;28;8851;-86
2023/04/27 09:38:11;;;;;;;;;2.50;2.50;;;;;15.26;47.04;100281.22;5080602;28;8843;-85
2023/04/27 09:40:41;;;;;;;;;4.00;3.50;;;;;15.65;46.32;100277.50;5079216;28;8937;-85
2023/04/27 09:43:09;;;;;;;;;1.00;1.00;;;;;15.97;45.85;100251.06;5076539;28;8868;-87
2023/04/27 09:45:37;;;;;;;;;4.75;4.00;;;;;16.35;45.44;100265.16;5071620;28;8820;-87
2023/04/27 09:48:05;;;;;;;;;4.00;4.00;;;;;16.68;45.05;100259.16;5070267;28;8844;-88
2023/04/27 09:50:33;;;;;;;;;6.00;4.00;;;;;16.97;44.77;100260.63;5069625;28;8918;-88
2023/04/27 09:53:04;;;;;;;;;4.00;4.00;;;;;17.38;44.52;100254.59;5069188;28;9123;-88
2023/04/27 09:55:32;;;;;;;;;4.00;4.00;;;;;17.70;43.67;100252.09;5069294;28;8848;-88
2023/04/27 09:58:00;;;;;;;;;3.20;3.20;;;;;17.92;43.66;100246.16;5070276;28;9249;-88
2023/04/27 10:00:28;;;;;;;;;6.20;5.20;;;;;18.12;42.96;100247.59;5070611;28;8868;-88
2023/04/27 10:02:56;;;;;;;;;5.40;5.20;;;;;18.30;42.67;100242.97;5070352;28;8843;-88
2023/04/27 10:05:25;;;;;;;;;5.60;5.60;;;;;18.51;42.23;100251.47;5071359;28;8840;-88
2023/04/27 10:07:53;;;;;;;;;3.00;3.00;;;;;18.88;41.75;100242.97;5071780;28;8859;-88
2023/04/27 10:10:21;;;;;;;;;6.20;5.20;;;;;19.27;41.45;100242.13;5072766;28;8848;-87
2023/04/27 10:12:49;;;;;;;;;4.00;4.00;;;;;19.62;40.94;100232.78;5071791;28;8986;-88
2023/04/27 10:15:18;;;;;;;;;2.20;2.20;;;;;19.85;41.12;100226.47;5072842;28;8848;-88
2023/04/27 10:17:47;;;;;;;;;6.00;5.60;;;;;20.10;40.32;100238.09;5072551;28;8852;-87
2023/04/27 10:20:16;;;;;;;;;3.60;3.40;;;;;20.40;40.38;100226.44;5072428;28;8864;-88
2023/04/27 10:22:44;;;;;;;;;4.00;4.00;;;;;20.79;40.26;100226.19;5072265;28;8836;-88
2023/04/27 10:25:12;;;;;;;;;4.60;4.00;;;;;21.10;39.89;100226.16;5072492;28;9541;-88
2023/04/27 10:27:41;;;;;;;;;4.60;4.00;;;;;21.28;39.31;100224.81;5070308;28;8882;-88
2023/04/27 10:30:09;;;;;;;;;5.40;5.40;;;;;21.44;39.19;100227.38;5069852;28;8840;-88
2023/04/27 10:32:37;;;;;;;;;2.40;2.40;;;;;21.65;38.70;100218.50;5070661;28;8840;-88
2023/04/27 10:35:06;;;;;;;;;3.60;3.60;;;;;21.89;38.80;100218.25;5071582;28;8840;-88
2023/04/27 10:37:34;;;;;;;;;6.60;6.20;;;;;22.10;38.31;100210.22;5070730;28;8847;-88
2023/04/27 10:40:03;;;;;;;;;2.40;2.00;;;;;22.21;38.07;100205.13;5071905;28;8836;-88
2023/04/27 10:42:33;;;;;;;;;4.20;4.20;;;;;22.37;38.31;100206.78;5072510;28;8828;-87
2023/04/27 10:45:01;;;;;;;;;5.40;4.00;;;;;22.53;38.02;100202.00;5072760;28;8840;-89
2023/04/27 10:47:29;;;;;;;;;1.80;1.80;;;;;22.82;37.72;100199.19;5073899;28;8843;-88
2023/04/27 10:49:57;;;;;;;;;5.80;5.00;;;;;23.13;37.40;100191.53;5073532;28;8859;-87
2023/04/27 10:52:25;;;;;;;;;8.20;6.20;;;;;23.21;37.00;100194.13;5072820;28;8848;-88
2023/04/27 10:54:53;;;;;;;;;4.20;4.20;;;;;23.17;36.99;100192.00;5071107;28;8859;-87
2023/04/27 10:57:21;;;;;;;;;5.80;5.00;;;;;23.25;37.12;100194.59;5069446;28;8836;-88
2023/04/27 10:59:49;;;;;;;;;7.20;5.80;;;;;23.50;36.74;100179.50;5072992;28;8909;-88
2023/04/27 11:02:18;;;;;;;;;5.20;4.20;;;;;23.70;36.17;100181.34;5073550;28;9672;-88
2023/04/27 11:04:46;;;;;;;;;4.80;4.80;;;;;23.75;36.08;100183.44;5074179;28;8866;-88
2023/04/27 11:07:15;;;;;;;;;5.00;4.40;;;;;23.52;36.34;100178.25;5075131;28;8844;-88
2023/04/27 11:09:43;;;;;;;;;6.40;5.40;;;;;23.43;36.73;100170.47;5074617;28;8937;-88
2023/04/27 11:12:11;;;;;;;;;6.40;5.00;;;;;23.52;36.41;100174.72;5070085;28;8864;-87
2023/04/27 11:14:39;;;;;;;;;6.40;6.40;;;;;23.83;36.27;100166.97;5071765;28;8978;-88
2023/04/27 11:17:08;;;;;;;;;6.00;5.80;;;;;23.98;35.71;100168.53;5071634;28;8856;-88
2023/04/27 11:19:36;;;;;;;;;7.80;7.80;;;;;23.91;35.77;100175.81;5071003;28;8847;-88
2023/04/27 11:22:04;;;;;;;;;5.20;5.20;;;;;23.87;35.78;100173.69;5070799;28;8864;-88
2023/04/27 11:24:32;;;;;;;;;6.00;5.20;;;;;23.91;35.80;100172.25;5075151;28;8852;-86
2023/04/27 11:27:00;;;;;;;;;5.00;4.00;;;;;24.02;35.78;100172.53;5075043;28;8832;-88
2023/04/27 11:29:29;;;;;;;;;6.80;5.20;;;;;24.20;35.16;100169.25;5076386;28;9502;-87
2023/04/27 11:32:00;;;;;;;;;6.00;6.00;;;;;24.28;33.93;100171.81;5076054;28;8840;-87
2023/04/27 11:34:33;;;;;;;;;6.60;6.60;;;;;24.23;34.67;100166.97;5075930;28;8843;-87
2023/04/27 11:37:02;;;;;;;;;6.00;5.60;;;;;24.11;34.62;100174.03;5076225;28;8927;-87
2023/04/27 11:39:44;;;;;;;;;6.00;5.80;;;;;23.95;35.26;100168.94;5075449;28;8875;-88
2023/04/27 11:42:13;;;;;;;;;7.40;7.40;;;;;23.99;35.10;100167.50;5075285;28;9521;-87